sensor_id;sensor_type;location;lat;lon;timestamp;pressure;altitude;pressure_sealevel;temperature;humidity
81990;BME280;71485;51.638;-0.182;2023-08-06T00:01:48;100156.45;;;20.02;39.20
81990;BME280;71485;51.638;-0.182;2023-08-06T00:04:15;100158.66;;;19.92;39.22
81990;BME280;71485;51.638;-0.182;2023-08-06T00:06:39;100160.01;;;20.30;39.28
81990;BME280;71485;51.638;-0.182;2023-08-06T00:09:05;100164.29;;;19.69;38.72
81990;BME280;71485;51.638;-0.182;2023-08-06T00:11:31;100160.60;;;19.79;39.27
81990;BME280;71485;51.638;-0.182;2023-08-06T00:13:56;100161.95;;;19.64;39.05
81990;BME280;71485;51.638;-0.182;2023-08-06T00:16:22;100166.60;;;20.28;39.01
81990;BME280;71485;51.638;-0.182;2023-08-06T00:18:47;100166.88;;;19.74;39.05
81990;BME280;71485;51.638;-0.182;2023-08-06T00:21:13;100170.93;;;19.73;38.78
81990;BME280;71485;51.638;-0.182;2023-08-06T00:23:39;100173.39;;;19.89;38.68
81990;BME280;71485;51.638;-0.182;2023-08-06T00:26:06;100172.65;;;19.91;38.78
81990;BME280;71485;51.638;-0.182;2023-08-06T00:28:30;100176.71;;;20.10;38.67
81990;BME280;71485;51.638;-0.182;2023-08-06T00:30:56;100177.32;;;20.43;38.53
81990;BME280;71485;51.638;-0.182;2023-08-06T00:33:23;100187.26;;;20.22;38.60
81990;BME280;71485;51.638;-0.182;2023-08-06T00:35:47;100189.04;;;20.25;38.08
81990;BME280;71485;51.638;-0.182;2023-08-06T00:38:13;100191.29;;;20.21;38.51
81990;BME280;71485;51.638;-0.182;2023-08-06T00:40:39;100193.19;;;20.34;38.03
81990;BME280;71485;51.638;-0.182;2023-08-06T00:43:04;100200.08;;;20.66;37.95
81990;BME280;71485;51.638;-0.182;2023-08-06T00:45:29;100205.32;;;20.42;37.56
81990;BME280;71485;51.638;-0.182;2023-08-06T00:47:55;100205.36;;;20.43;37.75
81990;BME280;71485;51.638;-0.182;2023-08-06T00:50:22;100212.56;;;20.64;38.00
81990;BME280;71485;51.638;-0.182;2023-08-06T00:52:46;100216.58;;;20.72;37.83
81990;BME280;71485;51.638;-0.182;2023-08-06T00:55:12;100215.94;;;21.02;37.82
81990;BME280;71485;51.638;-0.182;2023-08-06T00:57:37;100218.29;;;20.15;37.96
81990;BME280;71485;51.638;-0.182;2023-08-06T01:00:05;100222.51;;;20.41;38.29
81990;BME280;71485;51.638;-0.182;2023-08-06T01:02:29;100224.46;;;20.45;37.92
81990;BME280;71485;51.638;-0.182;2023-08-06T01:04:54;100223.76;;;20.29;37.87
81990;BME280;71485;51.638;-0.182;2023-08-06T01:07:37;100220.08;;;20.06;38.54
81990;BME280;71485;51.638;-0.182;2023-08-06T01:09:52;100223.01;;;20.43;37.86
81990;BME280;71485;51.638;-0.182;2023-08-06T01:12:20;100220.45;;;19.90;38.59
81990;BME280;71485;51.638;-0.182;2023-08-06T01:14:45;100222.74;;;19.88;38.26
81990;BME280;71485;51.638;-0.182;2023-08-06T01:17:04;100225.87;;;20.08;38.29
81990;BME280;71485;51.638;-0.182;2023-08-06T01:19:28;100226.02;;;20.30;38.24
81990;BME280;71485;51.638;-0.182;2023-08-06T01:21:57;100234.35;;;20.38;37.96
81990;BME280;71485;51.638;-0.182;2023-08-06T01:24:20;100242.04;;;20.68;37.68
81990;BME280;71485;51.638;-0.182;2023-08-06T01:26:53;100246.66;;;20.83;38.05
81990;BME280;71485;51.638;-0.182;2023-08-06T01:29:16;100252.05;;;20.90;37.40
81990;BME280;71485;51.638;-0.182;2023-08-06T01:31:38;100260.09;;;21.07;37.59
81990;BME280;71485;51.638;-0.182;2023-08-06T01:34:04;100261.27;;;20.91;37.64
81990;BME280;71485;51.638;-0.182;2023-08-06T01:36:28;100261.74;;;21.20;37.14
81990;BME280;71485;51.638;-0.182;2023-08-06T01:39:00;100266.14;;;20.87;37.53
81990;BME280;71485;51.638;-0.182;2023-08-06T01:41:19;100270.01;;;20.90;37.46
81990;BME280;71485;51.638;-0.182;2023-08-06T01:43:44;100274.54;;;20.97;36.81
81990;BME280;71485;51.638;-0.182;2023-08-06T01:46:10;100277.56;;;21.14;37.59
81990;BME280;71485;51.638;-0.182;2023-08-06T01:48:36;100283.10;;;21.31;37.47
81990;BME280;71485;51.638;-0.182;2023-08-06T01:51:04;100284.92;;;21.26;37.29
81990;BME280;71485;51.638;-0.182;2023-08-06T01:53:27;100285.50;;;21.09;37.43
81990;BME280;71485;51.638;-0.182;2023-08-06T01:55:52;100285.23;;;20.94;37.70
81990;BME280;71485;51.638;-0.182;2023-08-06T01:58:18;100292.01;;;21.33;37.38
81990;BME280;71485;51.638;-0.182;2023-08-06T02:00:44;100293.32;;;21.11;37.37
81990;BME280;71485;51.638;-0.182;2023-08-06T02:03:09;100295.13;;;20.88;39.32
81990;BME280;71485;51.638;-0.182;2023-08-06T02:05:35;100301.31;;;20.64;39.45
81990;BME280;71485;51.638;-0.182;2023-08-06T02:08:00;100297.58;;;20.83;40.63
81990;BME280;71485;51.638;-0.182;2023-08-06T02:10:26;100299.47;;;20.89;41.45
81990;BME280;71485;51.638;-0.182;2023-08-06T02:12:51;100301.70;;;21.06;41.19
81990;BME280;71485;51.638;-0.182;2023-08-06T02:15:17;100299.80;;;21.08;41.15
81990;BME280;71485;51.638;-0.182;2023-08-06T02:17:43;100302.11;;;20.86;41.06
81990;BME280;71485;51.638;-0.182;2023-08-06T02:20:09;100301.96;;;21.42;40.86
81990;BME280;71485;51.638;-0.182;2023-08-06T02:22:35;100303.39;;;20.96;40.74
81990;BME280;71485;51.638;-0.182;2023-08-06T02:24:59;100304.58;;;21.09;40.37
81990;BME280;71485;51.638;-0.182;2023-08-06T02:27:25;100304.24;;;21.15;40.30
81990;BME280;71485;51.638;-0.182;2023-08-06T02:29:51;100305.64;;;21.06;39.90
81990;BME280;71485;51.638;-0.182;2023-08-06T02:32:16;100302.86;;;21.34;39.78
81990;BME280;71485;51.638;-0.182;2023-08-06T02:34:42;100305.77;;;21.34;39.70
81990;BME280;71485;51.638;-0.182;2023-08-06T02:37:08;100306.19;;;21.69;39.51
81990;BME280;71485;51.638;-0.182;2023-08-06T02:39:34;100307.86;;;21.65;39.11
81990;BME280;71485;51.638;-0.182;2023-08-06T02:41:59;100311.83;;;21.66;39.13
81990;BME280;71485;51.638;-0.182;2023-08-06T02:44:27;100312.85;;;21.60;39.36
81990;BME280;71485;51.638;-0.182;2023-08-06T02:46:50;100314.67;;;21.53;39.04
81990;BME280;71485;51.638;-0.182;2023-08-06T02:49:16;100307.59;;;21.90;38.73
81990;BME280;71485;51.638;-0.182;2023-08-06T02:51:41;100309.27;;;21.91;38.77
81990;BME280;71485;51.638;-0.182;2023-08-06T02:54:07;100308.05;;;21.53;38.47
81990;BME280;71485;51.638;-0.182;2023-08-06T02:56:32;100312.78;;;22.15;38.31
81990;BME280;71485;51.638;-0.182;2023-08-06T02:58:58;100311.87;;;22.13;38.40
81990;BME280;71485;51.638;-0.182;2023-08-06T03:01:24;100310.71;;;22.03;38.38
81990;BME280;71485;51.638;-0.182;2023-08-06T03:03:49;100310.58;;;22.40;37.80
81990;BME280;71485;51.638;-0.182;2023-08-06T03:06:14;100314.51;;;22.42;37.69
81990;BME280;71485;51.638;-0.182;2023-08-06T03:08:41;100317.60;;;22.19;37.27
81990;BME280;71485;51.638;-0.182;2023-08-06T03:11:06;100317.35;;;22.63;37.36
81990;BME280;71485;51.638;-0.182;2023-08-06T03:13:32;100317.67;;;22.59;36.95
81990;BME280;71485;51.638;-0.182;2023-08-06T03:15:59;100319.17;;;22.33;37.08
81990;BME280;71485;51.638;-0.182;2023-08-06T03:18:23;100322.57;;;22.75;37.07
81990;BME280;71485;51.638;-0.182;2023-08-06T03:20:48;100318.85;;;22.40;36.82
81990;BME280;71485;51.638;-0.182;2023-08-06T03:23:14;100322.76;;;22.54;36.76
81990;BME280;71485;51.638;-0.182;2023-08-06T03:25:41;100324.17;;;22.37;36.82
81990;BME280;71485;51.638;-0.182;2023-08-06T03:28:05;100327.25;;;22.43;36.80
81990;BME280;71485;51.638;-0.182;2023-08-06T03:30:31;100325.03;;;22.63;36.45
81990;BME280;71485;51.638;-0.182;2023-08-06T03:32:56;100330.86;;;22.72;36.21
81990;BME280;71485;51.638;-0.182;2023-08-06T03:35:22;100327.85;;;22.82;36.02
81990;BME280;71485;51.638;-0.182;2023-08-06T03:37:48;100328.53;;;22.71;36.27
81990;BME280;71485;51.638;-0.182;2023-08-06T03:40:14;100333.33;;;22.81;36.09
81990;BME280;71485;51.638;-0.182;2023-08-06T03:42:38;100335.11;;;22.87;35.97
81990;BME280;71485;51.638;-0.182;2023-08-06T03:45:05;100335.58;;;22.63;36.32
81990;BME280;71485;51.638;-0.182;2023-08-06T03:47:30;100333.24;;;22.63;36.30
81990;BME280;71485;51.638;-0.182;2023-08-06T03:49:56;100335.39;;;22.84;35.94
81990;BME280;71485;51.638;-0.182;2023-08-06T03:52:21;100336.75;;;22.68;36.22
81990;BME280;71485;51.638;-0.182;2023-08-06T03:54:46;100339.39;;;22.86;35.92
81990;BME280;71485;51.638;-0.182;2023-08-06T03:57:12;100347.22;;;22.71;36.29
81990;BME280;71485;51.638;-0.182;2023-08-06T03:59:38;100344.46;;;22.72;35.94
81990;BME280;71485;51.638;-0.182;2023-08-06T04:02:03;100339.14;;;22.58;35.74
81990;BME280;71485;51.638;-0.182;2023-08-06T04:04:29;100341.84;;;22.56;35.66
81990;BME280;71485;51.638;-0.182;2023-08-06T04:06:55;100343.75;;;22.30;35.83
81990;BME280;71485;51.638;-0.182;2023-08-06T04:09:20;100345.23;;;22.56;35.53
81990;BME280;71485;51.638;-0.182;2023-08-06T04:11:50;100350.45;;;22.68;35.30
81990;BME280;71485;51.638;-0.182;2023-08-06T04:14:11;100350.71;;;22.68;35.24
81990;BME280;71485;51.638;-0.182;2023-08-06T04:16:37;100353.25;;;22.70;35.16
81990;BME280;71485;51.638;-0.182;2023-08-06T04:19:02;100356.92;;;22.44;35.17
81990;BME280;71485;51.638;-0.182;2023-08-06T04:21:28;100365.30;;;22.60;35.24
81990;BME280;71485;51.638;-0.182;2023-08-06T04:23:53;100362.66;;;22.60;35.21
81990;BME280;71485;51.638;-0.182;2023-08-06T04:26:20;100364.45;;;22.65;35.16
81990;BME280;71485;51.638;-0.182;2023-08-06T04:28:46;100365.55;;;22.75;35.02
81990;BME280;71485;51.638;-0.182;2023-08-06T04:31:11;100372.07;;;22.86;34.81
81990;BME280;71485;51.638;-0.182;2023-08-06T04:33:36;100370.24;;;22.94;34.62
81990;BME280;71485;51.638;-0.182;2023-08-06T04:36:02;100375.69;;;23.02;34.53
81990;BME280;71485;51.638;-0.182;2023-08-06T04:38:28;100373.90;;;22.96;34.51
81990;BME280;71485;51.638;-0.182;2023-08-06T04:40:53;100376.47;;;23.02;34.49
81990;BME280;71485;51.638;-0.182;2023-08-06T04:43:18;100382.67;;;22.98;34.48
81990;BME280;71485;51.638;-0.182;2023-08-06T04:45:46;100387.84;;;23.04;34.41
81990;BME280;71485;51.638;-0.182;2023-08-06T04:48:09;100385.96;;;23.25;34.42
81990;BME280;71485;51.638;-0.182;2023-08-06T04:50:36;100391.53;;;22.89;34.56
81990;BME280;71485;51.638;-0.182;2023-08-06T04:53:02;100399.10;;;22.80;34.66
81990;BME280;71485;51.638;-0.182;2023-08-06T04:55:26;100402.97;;;22.51;35.02
81990;BME280;71485;51.638;-0.182;2023-08-06T04:57:52;100403.57;;;22.54;35.03
81990;BME280;71485;51.638;-0.182;2023-08-06T05:00:17;100400.92;;;22.69;34.87
81990;BME280;71485;51.638;-0.182;2023-08-06T05:02:44;100406.50;;;22.81;34.77
81990;BME280;71485;51.638;-0.182;2023-08-06T05:05:09;100415.13;;;22.98;34.57
81990;BME280;71485;51.638;-0.182;2023-08-06T05:07:34;100413.55;;;22.90;34.75
81990;BME280;71485;51.638;-0.182;2023-08-06T05:10:00;100416.00;;;22.94;34.70
81990;BME280;71485;51.638;-0.182;2023-08-06T05:12:25;100420.79;;;22.98;34.62
81990;BME280;71485;51.638;-0.182;2023-08-06T05:14:51;100422.06;;;23.06;34.49
81990;BME280;71485;51.638;-0.182;2023-08-06T05:17:17;100426.85;;;23.12;34.41
81990;BME280;71485;51.638;-0.182;2023-08-06T05:19:42;100429.60;;;23.14;34.37
81990;BME280;71485;51.638;-0.182;2023-08-06T05:22:08;100435.27;;;23.14;34.37
81990;BME280;71485;51.638;-0.182;2023-08-06T05:24:33;100435.65;;;23.16;34.31
81990;BME280;71485;51.638;-0.182;2023-08-06T05:27:00;100436.45;;;23.17;34.29
81990;BME280;71485;51.638;-0.182;2023-08-06T05:29:26;100439.78;;;23.20;34.29
81990;BME280;71485;51.638;-0.182;2023-08-06T05:31:50;100443.84;;;22.98;34.25
81990;BME280;71485;51.638;-0.182;2023-08-06T05:34:16;100441.88;;;23.19;34.31
81990;BME280;71485;51.638;-0.182;2023-08-06T05:36:41;100441.88;;;23.22;34.29
81990;BME280;71485;51.638;-0.182;2023-08-06T05:39:08;100442.81;;;23.23;34.32
81990;BME280;71485;51.638;-0.182;2023-08-06T05:41:33;100447.70;;;23.26;34.31
81990;BME280;71485;51.638;-0.182;2023-08-06T05:43:58;100448.63;;;23.02;34.32
81990;BME280;71485;51.638;-0.182;2023-08-06T05:46:24;100452.59;;;23.18;34.36
81990;BME280;71485;51.638;-0.182;2023-08-06T05:48:50;100453.77;;;23.24;34.32
81990;BME280;71485;51.638;-0.182;2023-08-06T05:51:16;100462.01;;;23.22;34.34
81990;BME280;71485;51.638;-0.182;2023-08-06T05:53:40;100463.53;;;23.18;34.40
81990;BME280;71485;51.638;-0.182;2023-08-06T05:56:06;100463.32;;;23.20;34.39
81990;BME280;71485;51.638;-0.182;2023-08-06T05:58:32;100469.76;;;23.24;34.28
81990;BME280;71485;51.638;-0.182;2023-08-06T06:00:58;100473.43;;;22.96;34.39
81990;BME280;71485;51.638;-0.182;2023-08-06T06:03:23;100469.69;;;23.17;34.42
81990;BME280;71485;51.638;-0.182;2023-08-06T06:05:50;100477.31;;;23.19;34.39
81990;BME280;71485;51.638;-0.182;2023-08-06T06:08:14;100485.08;;;23.23;34.39
81990;BME280;71485;51.638;-0.182;2023-08-06T06:10:40;100482.34;;;22.88;34.47
81990;BME280;71485;51.638;-0.182;2023-08-06T06:13:06;100486.25;;;23.13;34.48
81990;BME280;71485;51.638;-0.182;2023-08-06T06:15:31;100485.87;;;23.10;34.48
81990;BME280;71485;51.638;-0.182;2023-08-06T06:17:57;100491.61;;;22.83;34.63
81990;BME280;71485;51.638;-0.182;2023-08-06T06:20:22;100496.87;;;23.10;34.51
81990;BME280;71485;51.638;-0.182;2023-08-06T06:22:48;100497.46;;;23.06;34.60
81990;BME280;71485;51.638;-0.182;2023-08-06T06:25:15;100498.43;;;23.08;34.61
81990;BME280;71485;51.638;-0.182;2023-08-06T06:27:40;100494.12;;;23.04;34.72
81990;BME280;71485;51.638;-0.182;2023-08-06T06:30:07;100497.00;;;22.97;34.85
81990;BME280;71485;51.638;-0.182;2023-08-06T06:32:30;100494.37;;;22.78;34.82
81990;BME280;71485;51.638;-0.182;2023-08-06T06:34:57;100494.64;;;22.75;34.87
81990;BME280;71485;51.638;-0.182;2023-08-06T06:37:22;100500.08;;;23.07;34.85
81990;BME280;71485;51.638;-0.182;2023-08-06T06:39:47;100498.18;;;23.09;34.77
81990;BME280;71485;51.638;-0.182;2023-08-06T06:42:12;100499.31;;;23.12;34.68
81990;BME280;71485;51.638;-0.182;2023-08-06T06:44:38;100505.79;;;23.14;34.79
81990;BME280;71485;51.638;-0.182;2023-08-06T06:47:04;100504.87;;;23.16;34.70
81990;BME280;71485;51.638;-0.182;2023-08-06T06:49:30;100507.42;;;23.17;34.76
81990;BME280;71485;51.638;-0.182;2023-08-06T06:51:56;100506.50;;;23.16;34.81
81990;BME280;71485;51.638;-0.182;2023-08-06T06:54:21;100512.82;;;22.92;34.71
81990;BME280;71485;51.638;-0.182;2023-08-06T06:56:46;100510.29;;;23.20;34.70
81990;BME280;71485;51.638;-0.182;2023-08-06T06:59:11;100511.16;;;23.21;34.65
81990;BME280;71485;51.638;-0.182;2023-08-06T07:01:38;100513.31;;;23.24;34.73
81990;BME280;71485;51.638;-0.182;2023-08-06T07:04:03;100516.44;;;22.98;34.81
81990;BME280;71485;51.638;-0.182;2023-08-06T07:06:28;100515.99;;;23.22;34.74
81990;BME280;71485;51.638;-0.182;2023-08-06T07:08:54;100526.52;;;23.25;34.70
81990;BME280;71485;51.638;-0.182;2023-08-06T07:11:19;100522.33;;;23.25;34.86
81990;BME280;71485;51.638;-0.182;2023-08-06T07:13:46;100528.05;;;23.28;34.96
81990;BME280;71485;51.638;-0.182;2023-08-06T07:16:11;100529.47;;;23.07;34.95
81990;BME280;71485;51.638;-0.182;2023-08-06T07:18:37;100529.11;;;23.33;35.04
81990;BME280;71485;51.638;-0.182;2023-08-06T07:21:01;100529.90;;;23.36;35.03
81990;BME280;71485;51.638;-0.182;2023-08-06T07:23:27;100527.13;;;23.37;34.95
81990;BME280;71485;51.638;-0.182;2023-08-06T07:25:53;100526.41;;;23.14;35.08
81990;BME280;71485;51.638;-0.182;2023-08-06T07:28:18;100531.90;;;23.13;35.04
81990;BME280;71485;51.638;-0.182;2023-08-06T07:30:44;100533.76;;;23.31;35.18
81990;BME280;71485;51.638;-0.182;2023-08-06T07:33:09;100533.66;;;23.10;35.12
81990;BME280;71485;51.638;-0.182;2023-08-06T07:35:35;100537.10;;;23.36;35.06
81990;BME280;71485;51.638;-0.182;2023-08-06T07:38:01;100540.16;;;23.14;34.98
81990;BME280;71485;51.638;-0.182;2023-08-06T07:40:26;100547.62;;;23.13;35.02
81990;BME280;71485;51.638;-0.182;2023-08-06T07:42:50;100546.38;;;23.14;34.97
81990;BME280;71485;51.638;-0.182;2023-08-06T07:45:16;100548.92;;;23.33;34.88
81990;BME280;71485;51.638;-0.182;2023-08-06T07:47:42;100553.74;;;23.40;34.84
81990;BME280;71485;51.638;-0.182;2023-08-06T07:50:08;100552.69;;;23.43;34.79
81990;BME280;71485;51.638;-0.182;2023-08-06T07:52:33;100559.02;;;23.20;34.59
81990;BME280;71485;51.638;-0.182;2023-08-06T07:54:58;100554.21;;;23.22;34.65
81990;BME280;71485;51.638;-0.182;2023-08-06T07:57:24;100552.85;;;23.24;34.66
81990;BME280;71485;51.638;-0.182;2023-08-06T07:59:49;100555.87;;;23.49;34.61
81990;BME280;71485;51.638;-0.182;2023-08-06T08:02:15;100554.26;;;23.49;34.65
81990;BME280;71485;51.638;-0.182;2023-08-06T08:04:40;100554.48;;;23.26;34.58
81990;BME280;71485;51.638;-0.182;2023-08-06T08:07:05;100561.21;;;23.03;34.58
81990;BME280;71485;51.638;-0.182;2023-08-06T08:09:31;100561.50;;;23.29;34.60
81990;BME280;71485;51.638;-0.182;2023-08-06T08:11:55;100564.16;;;23.08;34.54
81990;BME280;71485;51.638;-0.182;2023-08-06T08:14:20;100568.02;;;23.55;34.52
81990;BME280;71485;51.638;-0.182;2023-08-06T08:16:47;100569.05;;;23.55;34.49
81990;BME280;71485;51.638;-0.182;2023-08-06T08:19:11;100570.96;;;23.34;34.54
81990;BME280;71485;51.638;-0.182;2023-08-06T08:21:37;100579.54;;;23.35;34.51
81990;BME280;71485;51.638;-0.182;2023-08-06T08:24:05;100579.90;;;23.12;34.46
81990;BME280;71485;51.638;-0.182;2023-08-06T08:26:29;100579.73;;;23.31;34.19
81990;BME280;71485;51.638;-0.182;2023-08-06T08:28:54;100578.78;;;23.05;34.76
81990;BME280;71485;51.638;-0.182;2023-08-06T08:31:19;100573.83;;;23.12;34.93
81990;BME280;71485;51.638;-0.182;2023-08-06T08:33:45;100576.60;;;23.32;35.12
81990;BME280;71485;51.638;-0.182;2023-08-06T08:36:10;100576.39;;;23.38;35.03
81990;BME280;71485;51.638;-0.182;2023-08-06T08:38:36;100573.04;;;23.46;35.05
81990;BME280;71485;51.638;-0.182;2023-08-06T08:41:02;100580.70;;;23.37;35.02
81990;BME280;71485;51.638;-0.182;2023-08-06T08:43:27;100581.36;;;23.38;35.02
81990;BME280;71485;51.638;-0.182;2023-08-06T08:45:54;100581.72;;;23.35;34.77
81990;BME280;71485;51.638;-0.182;2023-08-06T08:48:19;100574.33;;;23.30;34.65
81990;BME280;71485;51.638;-0.182;2023-08-06T08:50:44;100580.71;;;23.37;34.33
81990;BME280;71485;51.638;-0.182;2023-08-06T08:53:09;100580.66;;;23.62;34.13
81990;BME280;71485;51.638;-0.182;2023-08-06T08:55:35;100575.09;;;23.57;34.22
81990;BME280;71485;51.638;-0.182;2023-08-06T08:58:00;100581.08;;;23.40;34.52
81990;BME280;71485;51.638;-0.182;2023-08-06T09:00:25;100578.43;;;23.45;34.31
81990;BME280;71485;51.638;-0.182;2023-08-06T09:02:53;100579.45;;;23.48;34.02
81990;BME280;71485;51.638;-0.182;2023-08-06T09:05:18;100583.89;;;23.56;33.87
81990;BME280;71485;51.638;-0.182;2023-08-06T09:07:43;100586.24;;;23.61;33.73
81990;BME280;71485;51.638;-0.182;2023-08-06T09:10:10;100588.62;;;23.62;33.66
81990;BME280;71485;51.638;-0.182;2023-08-06T09:12:33;100587.86;;;23.87;33.56
81990;BME280;71485;51.638;-0.182;2023-08-06T09:14:59;100585.35;;;23.89;33.47
81990;BME280;71485;51.638;-0.182;2023-08-06T09:17:24;100587.24;;;23.66;33.38
81990;BME280;71485;51.638;-0.182;2023-08-06T09:19:50;100583.91;;;23.71;33.39
81990;BME280;71485;51.638;-0.182;2023-08-06T09:22:15;100588.96;;;23.74;33.72
81990;BME280;71485;51.638;-0.182;2023-08-06T09:24:43;100592.88;;;23.75;33.67
81990;BME280;71485;51.638;-0.182;2023-08-06T09:27:11;100597.88;;;23.78;33.63
81990;BME280;71485;51.638;-0.182;2023-08-06T09:29:33;100603.39;;;23.80;33.52
81990;BME280;71485;51.638;-0.182;2023-08-06T09:31:58;100609.60;;;23.86;33.38
81990;BME280;71485;51.638;-0.182;2023-08-06T09:34:24;100606.38;;;23.89;33.30
81990;BME280;71485;51.638;-0.182;2023-08-06T09:36:50;100604.99;;;23.91;33.22
81990;BME280;71485;51.638;-0.182;2023-08-06T09:39:17;100607.95;;;23.71;33.13
81990;BME280;71485;51.638;-0.182;2023-08-06T09:41:39;100610.11;;;23.98;33.06
81990;BME280;71485;51.638;-0.182;2023-08-06T09:44:05;100612.51;;;23.99;33.01
81990;BME280;71485;51.638;-0.182;2023-08-06T09:46:32;100611.81;;;24.00;32.95
81990;BME280;71485;51.638;-0.182;2023-08-06T09:48:58;100615.82;;;24.04;32.87
81990;BME280;71485;51.638;-0.182;2023-08-06T09:51:23;100612.27;;;24.07;32.75
81990;BME280;71485;51.638;-0.182;2023-08-06T09:53:48;100616.64;;;24.11;32.66
81990;BME280;71485;51.638;-0.182;2023-08-06T09:56:15;100620.98;;;23.88;32.66
81990;BME280;71485;51.638;-0.182;2023-08-06T09:58:39;100623.54;;;23.64;32.57
81990;BME280;71485;51.638;-0.182;2023-08-06T10:01:09;100625.81;;;23.88;32.53
81990;BME280;71485;51.638;-0.182;2023-08-06T10:03:30;100625.45;;;24.12;32.44
81990;BME280;71485;51.638;-0.182;2023-08-06T10:05:58;100631.93;;;24.16;32.43
81990;BME280;71485;51.638;-0.182;2023-08-06T10:08:21;100632.17;;;24.16;32.34
81990;BME280;71485;51.638;-0.182;2023-08-06T10:10:47;100624.02;;;24.15;32.31
81990;BME280;71485;51.638;-0.182;2023-08-06T10:13:13;100632.70;;;24.16;32.28
81990;BME280;71485;51.638;-0.182;2023-08-06T10:15:39;100627.88;;;24.08;32.47
81990;BME280;71485;51.638;-0.182;2023-08-06T10:18:04;100638.35;;;24.01;32.61
81990;BME280;71485;51.638;-0.182;2023-08-06T10:20:33;100636.45;;;23.89;32.59
81990;BME280;71485;51.638;-0.182;2023-08-06T10:23:01;100633.26;;;23.75;32.76
81990;BME280;71485;51.638;-0.182;2023-08-06T10:25:25;100637.38;;;23.79;32.95
81990;BME280;71485;51.638;-0.182;2023-08-06T10:27:53;100639.37;;;23.85;32.36
81990;BME280;71485;51.638;-0.182;2023-08-06T10:30:22;100637.32;;;24.14;32.56
81990;BME280;71485;51.638;-0.182;2023-08-06T10:32:47;100634.84;;;24.23;32.06
81990;BME280;71485;51.638;-0.182;2023-08-06T10:35:03;100639.42;;;24.28;32.32
81990;BME280;71485;51.638;-0.182;2023-08-06T10:37:35;100641.15;;;24.32;32.59
81990;BME280;71485;51.638;-0.182;2023-08-06T10:39:55;100641.98;;;24.35;32.13
81990;BME280;71485;51.638;-0.182;2023-08-06T10:42:21;100640.34;;;24.38;32.16
81990;BME280;71485;51.638;-0.182;2023-08-06T10:49:36;100644.91;;;24.49;32.03
81990;BME280;71485;51.638;-0.182;2023-08-06T10:52:03;100639.54;;;24.16;32.26
81990;BME280;71485;51.638;-0.182;2023-08-06T10:54:27;100640.48;;;24.55;32.07
81990;BME280;71485;51.638;-0.182;2023-08-06T10:56:52;100641.34;;;24.70;31.86
81990;BME280;71485;51.638;-0.182;2023-08-06T10:59:18;100635.63;;;24.52;31.78
81990;BME280;71485;51.638;-0.182;2023-08-06T11:01:45;100633.55;;;24.82;31.46
81990;BME280;71485;51.638;-0.182;2023-08-06T11:04:09;100634.39;;;24.70;31.53
81990;BME280;71485;51.638;-0.182;2023-08-06T11:06:35;100638.91;;;25.06;31.98
81990;BME280;71485;51.638;-0.182;2023-08-06T11:09:01;100638.91;;;24.93;31.94
81990;BME280;71485;51.638;-0.182;2023-08-06T11:11:27;100644.93;;;24.96;31.89
81990;BME280;71485;51.638;-0.182;2023-08-06T11:13:52;100642.66;;;24.71;31.45
81990;BME280;71485;51.638;-0.182;2023-08-06T11:16:19;100638.95;;;24.96;31.13
81990;BME280;71485;51.638;-0.182;2023-08-06T11:18:42;100639.77;;;24.96;30.92
81990;BME280;71485;51.638;-0.182;2023-08-06T11:21:10;100636.66;;;24.97;30.92
81990;BME280;71485;51.638;-0.182;2023-08-06T11:23:34;100641.19;;;24.76;30.89
81990;BME280;71485;51.638;-0.182;2023-08-06T11:26:00;100640.21;;;25.05;30.90
81990;BME280;71485;51.638;-0.182;2023-08-06T11:28:25;100641.75;;;24.83;30.89
81990;BME280;71485;51.638;-0.182;2023-08-06T11:30:52;100637.89;;;25.12;30.94
81990;BME280;71485;51.638;-0.182;2023-08-06T11:33:20;100638.52;;;24.92;31.00
81990;BME280;71485;51.638;-0.182;2023-08-06T11:35:41;100635.36;;;25.21;30.97
81990;BME280;71485;51.638;-0.182;2023-08-06T11:38:07;100632.71;;;25.22;30.93
81990;BME280;71485;51.638;-0.182;2023-08-06T11:40:33;100630.48;;;25.30;31.06
81990;BME280;71485;51.638;-0.182;2023-08-06T11:42:58;100627.45;;;25.37;30.95
81990;BME280;71485;51.638;-0.182;2023-08-06T11:45:24;100630.89;;;25.36;30.97
81990;BME280;71485;51.638;-0.182;2023-08-06T11:47:50;100627.50;;;25.11;30.84
81990;BME280;71485;51.638;-0.182;2023-08-06T11:50:22;100629.50;;;25.38;30.81
81990;BME280;71485;51.638;-0.182;2023-08-06T11:52:40;100632.86;;;25.37;30.76
81990;BME280;71485;51.638;-0.182;2023-08-06T11:55:08;100630.98;;;25.38;30.69
81990;BME280;71485;51.638;-0.182;2023-08-06T11:57:32;100645.10;;;25.38;30.67
81990;BME280;71485;51.638;-0.182;2023-08-06T11:59:57;100637.07;;;25.16;30.67
81990;BME280;71485;51.638;-0.182;2023-08-06T12:02:23;100638.18;;;25.21;30.69
81990;BME280;71485;51.638;-0.182;2023-08-06T12:05:00;100641.12;;;25.23;30.68
81990;BME280;71485;51.638;-0.182;2023-08-06T12:07:16;100637.12;;;25.21;30.69
81990;BME280;71485;51.638;-0.182;2023-08-06T12:09:40;100645.24;;;25.46;30.64
81990;BME280;71485;51.638;-0.182;2023-08-06T12:12:05;100638.60;;;25.49;30.69
81990;BME280;71485;51.638;-0.182;2023-08-06T12:14:30;100643.70;;;25.29;30.73
81990;BME280;71485;51.638;-0.182;2023-08-06T12:16:56;100642.19;;;25.29;30.90
81990;BME280;71485;51.638;-0.182;2023-08-06T12:19:22;100647.30;;;25.30;30.91
81990;BME280;71485;51.638;-0.182;2023-08-06T12:21:47;100652.37;;;25.30;30.85
81990;BME280;71485;51.638;-0.182;2023-08-06T12:24:13;100653.60;;;25.30;30.84
81990;BME280;71485;51.638;-0.182;2023-08-06T12:26:38;100653.00;;;25.07;30.79
81990;BME280;71485;51.638;-0.182;2023-08-06T12:29:03;100654.96;;;25.32;30.79
81990;BME280;71485;51.638;-0.182;2023-08-06T12:31:28;100657.52;;;25.33;30.72
81990;BME280;71485;51.638;-0.182;2023-08-06T12:33:54;100662.53;;;25.57;30.72
81990;BME280;71485;51.638;-0.182;2023-08-06T12:36:23;100665.93;;;25.33;30.69